sensor_id;sensor_type;location;lat;lon;timestamp;P1;durP1;ratioP1;P2;durP2;ratioP2
53253;SDS011;39148;53.332;6.922;2023-07-28T00:01:35;4.90;;;2.83;;
53253;SDS011;39148;53.332;6.922;2023-07-28T00:04:01;5.82;;;3.13;;
53253;SDS011;39148;53.332;6.922;2023-07-28T00:06:32;5.32;;;2.75;;
53253;SDS011;39148;53.332;6.922;2023-07-28T00:08:58;6.80;;;3.08;;
53253;SDS011;39148;53.332;6.922;2023-07-28T00:11:23;5.78;;;2.90;;
53253;SDS011;39148;53.332;6.922;2023-07-28T00:13:49;5.55;;;2.75;;
53253;SDS011;39148;53.332;6.922;2023-07-28T00:16:15;5.35;;;2.92;;
53253;SDS011;39148;53.332;6.922;2023-07-28T00:18:40;7.38;;;3.85;;
53253;SDS011;39148;53.332;6.922;2023-07-28T00:21:06;6.80;;;3.40;;
53253;SDS011;39148;53.332;6.922;2023-07-28T00:23:32;5.85;;;3.28;;
53253;SDS011;39148;53.332;6.922;2023-07-28T00:25:58;7.03;;;3.30;;
53253;SDS011;39148;53.332;6.922;2023-07-28T00:28:23;8.13;;;3.38;;
53253;SDS011;39148;53.332;6.922;2023-07-28T00:30:49;6.38;;;3.22;;
53253;SDS011;39148;53.332;6.922;2023-07-28T00:33:16;5.53;;;2.83;;
53253;SDS011;39148;53.332;6.922;2023-07-28T00:35:41;8.55;;;4.00;;
53253;SDS011;39148;53.332;6.922;2023-07-28T00:38:08;5.70;;;3.03;;
53253;SDS011;39148;53.332;6.922;2023-07-28T00:40:37;5.43;;;3.10;;
53253;SDS011;39148;53.332;6.922;2023-07-28T00:43:03;7.00;;;3.20;;
53253;SDS011;39148;53.332;6.922;2023-07-28T00:45:29;7.75;;;3.53;;
53253;SDS011;39148;53.332;6.922;2023-07-28T00:47:56;6.18;;;3.35;;
53253;SDS011;39148;53.332;6.922;2023-07-28T00:50:25;8.95;;;3.63;;
53253;SDS011;39148;53.332;6.922;2023-07-28T00:52:51;6.15;;;3.22;;
53253;SDS011;39148;53.332;6.922;2023-07-28T00:55:17;6.88;;;3.58;;
53253;SDS011;39148;53.332;6.922;2023-07-28T00:57:43;8.02;;;3.08;;
53253;SDS011;39148;53.332;6.922;2023-07-28T01:00:10;6.80;;;3.33;;
53253;SDS011;39148;53.332;6.922;2023-07-28T01:02:36;8.52;;;4.10;;
53253;SDS011;39148;53.332;6.922;2023-07-28T01:05:02;9.85;;;3.50;;
53253;SDS011;39148;53.332;6.922;2023-07-28T01:07:36;7.95;;;3.17;;
53253;SDS011;39148;53.332;6.922;2023-07-28T01:10:14;7.28;;;3.10;;
53253;SDS011;39148;53.332;6.922;2023-07-28T01:12:43;6.82;;;2.97;;
53253;SDS011;39148;53.332;6.922;2023-07-28T01:15:09;8.68;;;3.20;;
53253;SDS011;39148;53.332;6.922;2023-07-28T01:17:35;8.57;;;3.83;;
53253;SDS011;39148;53.332;6.922;2023-07-28T01:20:01;8.50;;;3.33;;
53253;SDS011;39148;53.332;6.922;2023-07-28T01:28:09;7.85;;;3.30;;
53253;SDS011;39148;53.332;6.922;2023-07-28T01:30:37;7.60;;;3.10;;
53253;SDS011;39148;53.332;6.922;2023-07-28T01:33:06;7.43;;;3.45;;
53253;SDS011;39148;53.332;6.922;2023-07-28T01:35:33;7.95;;;3.50;;
53253;SDS011;39148;53.332;6.922;2023-07-28T01:37:58;6.63;;;3.47;;
53253;SDS011;39148;53.332;6.922;2023-07-28T01:40:24;7.10;;;2.80;;
53253;SDS011;39148;53.332;6.922;2023-07-28T01:42:50;6.65;;;2.75;;
53253;SDS011;39148;53.332;6.922;2023-07-28T01:45:16;6.60;;;2.58;;
53253;SDS011;39148;53.332;6.922;2023-07-28T01:47:41;9.23;;;3.55;;
53253;SDS011;39148;53.332;6.922;2023-07-28T01:50:07;7.85;;;2.85;;
53253;SDS011;39148;53.332;6.922;2023-07-28T01:52:33;7.32;;;2.63;;
53253;SDS011;39148;53.332;6.922;2023-07-28T01:54:58;7.10;;;2.75;;
53253;SDS011;39148;53.332;6.922;2023-07-28T01:57:24;6.05;;;2.58;;
53253;SDS011;39148;53.332;6.922;2023-07-28T01:59:52;8.90;;;3.45;;
53253;SDS011;39148;53.332;6.922;2023-07-28T02:02:19;8.40;;;3.35;;
53253;SDS011;39148;53.332;6.922;2023-07-28T02:04:44;7.10;;;3.13;;
53253;SDS011;39148;53.332;6.922;2023-07-28T02:07:11;6.93;;;2.63;;
53253;SDS011;39148;53.332;6.922;2023-07-28T02:09:37;6.35;;;2.60;;
53253;SDS011;39148;53.332;6.922;2023-07-28T02:12:02;6.80;;;3.30;;
53253;SDS011;39148;53.332;6.922;2023-07-28T02:14:28;8.13;;;2.72;;
53253;SDS011;39148;53.332;6.922;2023-07-28T02:16:54;7.00;;;2.80;;
53253;SDS011;39148;53.332;6.922;2023-07-28T02:19:19;8.48;;;3.05;;
53253;SDS011;39148;53.332;6.922;2023-07-28T02:21:45;6.25;;;3.08;;
53253;SDS011;39148;53.332;6.922;2023-07-28T02:24:10;7.18;;;3.33;;
53253;SDS011;39148;53.332;6.922;2023-07-28T02:26:36;8.23;;;3.28;;
53253;SDS011;39148;53.332;6.922;2023-07-28T02:29:02;5.75;;;2.72;;
53253;SDS011;39148;53.332;6.922;2023-07-28T02:31:27;6.20;;;2.53;;
53253;SDS011;39148;53.332;6.922;2023-07-28T02:33:53;6.22;;;3.03;;
53253;SDS011;39148;53.332;6.922;2023-07-28T02:36:20;6.68;;;2.47;;
53253;SDS011;39148;53.332;6.922;2023-07-28T02:38:45;7.40;;;3.05;;
53253;SDS011;39148;53.332;6.922;2023-07-28T02:41:11;5.43;;;2.45;;
53253;SDS011;39148;53.332;6.922;2023-07-28T02:43:37;7.53;;;3.05;;
53253;SDS011;39148;53.332;6.922;2023-07-28T02:46:02;7.22;;;2.65;;
53253;SDS011;39148;53.332;6.922;2023-07-28T02:48:28;5.72;;;2.70;;
53253;SDS011;39148;53.332;6.922;2023-07-28T02:50:54;6.82;;;2.80;;
53253;SDS011;39148;53.332;6.922;2023-07-28T02:53:19;7.80;;;3.00;;
53253;SDS011;39148;53.332;6.922;2023-07-28T02:55:46;6.80;;;3.13;;
53253;SDS011;39148;53.332;6.922;2023-07-28T02:58:12;8.32;;;3.03;;
53253;SDS011;39148;53.332;6.922;2023-07-28T03:00:39;7.32;;;2.88;;
53253;SDS011;39148;53.332;6.922;2023-07-28T03:03:06;7.25;;;3.05;;
53253;SDS011;39148;53.332;6.922;2023-07-28T03:05:32;7.20;;;2.88;;
53253;SDS011;39148;53.332;6.922;2023-07-28T03:07:58;5.65;;;2.65;;
53253;SDS011;39148;53.332;6.922;2023-07-28T03:10:24;5.13;;;2.35;;
53253;SDS011;39148;53.332;6.922;2023-07-28T03:12:50;7.47;;;2.78;;
53253;SDS011;39148;53.332;6.922;2023-07-28T03:15:16;6.68;;;2.83;;
53253;SDS011;39148;53.332;6.922;2023-07-28T03:17:41;5.60;;;2.67;;
53253;SDS011;39148;53.332;6.922;2023-07-28T03:20:07;6.82;;;2.83;;
53253;SDS011;39148;53.332;6.922;2023-07-28T03:22:33;6.18;;;2.95;;
53253;SDS011;39148;53.332;6.922;2023-07-28T03:24:59;7.75;;;2.97;;
53253;SDS011;39148;53.332;6.922;2023-07-28T03:27:24;7.28;;;3.33;;
53253;SDS011;39148;53.332;6.922;2023-07-28T03:29:50;8.95;;;3.15;;
53253;SDS011;39148;53.332;6.922;2023-07-28T03:32:16;7.32;;;3.28;;
53253;SDS011;39148;53.332;6.922;2023-07-28T03:34:42;9.05;;;3.05;;
53253;SDS011;39148;53.332;6.922;2023-07-28T03:37:08;5.78;;;2.65;;
53253;SDS011;39148;53.332;6.922;2023-07-28T03:39:34;6.47;;;2.97;;
53253;SDS011;39148;53.332;6.922;2023-07-28T03:41:59;6.82;;;2.85;;
53253;SDS011;39148;53.332;6.922;2023-07-28T03:44:25;5.82;;;2.97;;
53253;SDS011;39148;53.332;6.922;2023-07-28T03:46:51;6.60;;;2.58;;
53253;SDS011;39148;53.332;6.922;2023-07-28T03:49:17;5.80;;;2.90;;
53253;SDS011;39148;53.332;6.922;2023-07-28T03:51:42;6.88;;;2.85;;
53253;SDS011;39148;53.332;6.922;2023-07-28T03:54:08;6.28;;;2.60;;
53253;SDS011;39148;53.332;6.922;2023-07-28T03:56:34;5.30;;;2.60;;
53253;SDS011;39148;53.332;6.922;2023-07-28T03:58:59;5.85;;;2.67;;
53253;SDS011;39148;53.332;6.922;2023-07-28T04:01:25;6.30;;;2.72;;
53253;SDS011;39148;53.332;6.922;2023-07-28T04:03:51;6.50;;;2.90;;
53253;SDS011;39148;53.332;6.922;2023-07-28T04:06:16;7.25;;;3.30;;
53253;SDS011;39148;53.332;6.922;2023-07-28T04:08:42;6.05;;;3.08;;
53253;SDS011;39148;53.332;6.922;2023-07-28T04:11:08;8.05;;;3.58;;
53253;SDS011;39148;53.332;6.922;2023-07-28T04:13:34;6.40;;;2.75;;
53253;SDS011;39148;53.332;6.922;2023-07-28T04:16:00;6.18;;;2.80;;
53253;SDS011;39148;53.332;6.922;2023-07-28T04:18:26;8.13;;;3.60;;
53253;SDS011;39148;53.332;6.922;2023-07-28T04:20:52;7.32;;;3.70;;
53253;SDS011;39148;53.332;6.922;2023-07-28T04:23:18;5.90;;;3.05;;
53253;SDS011;39148;53.332;6.922;2023-07-28T04:25:44;7.30;;;3.00;;
53253;SDS011;39148;53.332;6.922;2023-07-28T04:28:09;5.93;;;2.47;;
53253;SDS011;39148;53.332;6.922;2023-07-28T04:30:35;7.50;;;3.40;;
53253;SDS011;39148;53.332;6.922;2023-07-28T04:33:01;7.80;;;3.70;;
53253;SDS011;39148;53.332;6.922;2023-07-28T04:35:26;8.95;;;3.40;;
53253;SDS011;39148;53.332;6.922;2023-07-28T04:37:54;5.57;;;2.22;;
53253;SDS011;39148;53.332;6.922;2023-07-28T04:40:20;6.35;;;3.28;;
53253;SDS011;39148;53.332;6.922;2023-07-28T04:42:46;6.50;;;2.97;;
53253;SDS011;39148;53.332;6.922;2023-07-28T04:45:11;5.68;;;2.55;;
53253;SDS011;39148;53.332;6.922;2023-07-28T04:47:37;7.32;;;2.60;;
53253;SDS011;39148;53.332;6.922;2023-07-28T04:50:03;7.95;;;3.88;;
53253;SDS011;39148;53.332;6.922;2023-07-28T04:52:29;6.65;;;3.00;;
53253;SDS011;39148;53.332;6.922;2023-07-28T04:54:54;5.20;;;2.72;;
53253;SDS011;39148;53.332;6.922;2023-07-28T04:57:20;5.97;;;2.83;;
53253;SDS011;39148;53.332;6.922;2023-07-28T04:59:46;5.82;;;2.45;;
53253;SDS011;39148;53.332;6.922;2023-07-28T05:02:11;6.15;;;2.85;;
53253;SDS011;39148;53.332;6.922;2023-07-28T05:04:37;5.95;;;2.72;;
53253;SDS011;39148;53.332;6.922;2023-07-28T05:07:03;6.40;;;3.13;;
53253;SDS011;39148;53.332;6.922;2023-07-28T05:09:29;7.45;;;3.00;;
53253;SDS011;39148;53.332;6.922;2023-07-28T05:11:55;5.45;;;2.75;;
53253;SDS011;39148;53.332;6.922;2023-07-28T05:14:20;6.95;;;3.30;;
53253;SDS011;39148;53.332;6.922;2023-07-28T05:16:46;6.50;;;2.72;;
53253;SDS011;39148;53.332;6.922;2023-07-28T05:19:12;6.32;;;2.30;;
53253;SDS011;39148;53.332;6.922;2023-07-28T05:21:38;7.18;;;3.08;;
53253;SDS011;39148;53.332;6.922;2023-07-28T05:24:04;6.80;;;2.55;;
53253;SDS011;39148;53.332;6.922;2023-07-28T05:26:30;6.30;;;2.78;;
53253;SDS011;39148;53.332;6.922;2023-07-28T05:28:55;7.78;;;3.05;;
53253;SDS011;39148;53.332;6.922;2023-07-28T05:31:21;6.50;;;3.10;;
53253;SDS011;39148;53.332;6.922;2023-07-28T05:33:47;6.45;;;2.72;;
53253;SDS011;39148;53.332;6.922;2023-07-28T05:36:12;7.47;;;3.13;;
53253;SDS011;39148;53.332;6.922;2023-07-28T05:38:38;6.43;;;2.90;;
53253;SDS011;39148;53.332;6.922;2023-07-28T05:41:04;8.65;;;4.15;;
53253;SDS011;39148;53.332;6.922;2023-07-28T05:43:30;6.85;;;2.70;;
53253;SDS011;39148;53.332;6.922;2023-07-28T05:45:57;5.57;;;2.78;;
53253;SDS011;39148;53.332;6.922;2023-07-28T05:48:23;6.45;;;3.50;;
53253;SDS011;39148;53.332;6.922;2023-07-28T05:50:48;6.72;;;2.90;;
53253;SDS011;39148;53.332;6.922;2023-07-28T05:53:16;6.20;;;3.10;;
53253;SDS011;39148;53.332;6.922;2023-07-28T05:55:42;5.88;;;2.53;;
53253;SDS011;39148;53.332;6.922;2023-07-28T05:58:07;7.47;;;3.13;;
53253;SDS011;39148;53.332;6.922;2023-07-28T06:00:33;5.28;;;2.88;;
53253;SDS011;39148;53.332;6.922;2023-07-28T06:02:59;5.82;;;2.70;;
53253;SDS011;39148;53.332;6.922;2023-07-28T06:05:24;6.10;;;3.50;;
53253;SDS011;39148;53.332;6.922;2023-07-28T06:07:50;7.03;;;3.22;;
53253;SDS011;39148;53.332;6.922;2023-07-28T06:10:16;7.68;;;3.67;;
53253;SDS011;39148;53.332;6.922;2023-07-28T06:12:41;7.05;;;3.20;;
53253;SDS011;39148;53.332;6.922;2023-07-28T06:15:07;9.27;;;3.40;;
53253;SDS011;39148;53.332;6.922;2023-07-28T06:17:33;6.00;;;3.05;;
53253;SDS011;39148;53.332;6.922;2023-07-28T06:19:59;5.95;;;3.10;;
53253;SDS011;39148;53.332;6.922;2023-07-28T06:22:24;5.53;;;3.38;;
53253;SDS011;39148;53.332;6.922;2023-07-28T06:24:50;5.78;;;2.88;;
53253;SDS011;39148;53.332;6.922;2023-07-28T06:27:16;6.43;;;3.10;;
53253;SDS011;39148;53.332;6.922;2023-07-28T06:29:41;6.05;;;3.30;;
53253;SDS011;39148;53.332;6.922;2023-07-28T06:32:07;5.75;;;3.10;;
53253;SDS011;39148;53.332;6.922;2023-07-28T06:34:33;6.72;;;2.90;;
53253;SDS011;39148;53.332;6.922;2023-07-28T06:36:59;7.15;;;2.85;;
53253;SDS011;39148;53.332;6.922;2023-07-28T06:39:24;5.05;;;2.67;;
53253;SDS011;39148;53.332;6.922;2023-07-28T06:41:50;5.50;;;2.83;;
53253;SDS011;39148;53.332;6.922;2023-07-28T06:44:16;6.10;;;2.50;;
53253;SDS011;39148;53.332;6.922;2023-07-28T06:46:42;5.82;;;2.75;;
53253;SDS011;39148;53.332;6.922;2023-07-28T06:49:08;6.55;;;3.00;;
53253;SDS011;39148;53.332;6.922;2023-07-28T06:51:34;6.00;;;3.08;;
53253;SDS011;39148;53.332;6.922;2023-07-28T06:53:59;6.00;;;2.95;;
53253;SDS011;39148;53.332;6.922;2023-07-28T06:56:25;5.60;;;3.03;;
53253;SDS011;39148;53.332;6.922;2023-07-28T06:58:51;5.97;;;2.83;;
53253;SDS011;39148;53.332;6.922;2023-07-28T07:01:17;5.32;;;3.05;;
53253;SDS011;39148;53.332;6.922;2023-07-28T07:03:43;6.38;;;3.13;;
53253;SDS011;39148;53.332;6.922;2023-07-28T07:06:09;5.22;;;2.95;;
53253;SDS011;39148;53.332;6.922;2023-07-28T07:08:34;5.18;;;2.83;;
53253;SDS011;39148;53.332;6.922;2023-07-28T07:11:00;6.32;;;2.97;;
53253;SDS011;39148;53.332;6.922;2023-07-28T07:13:26;4.97;;;2.90;;
53253;SDS011;39148;53.332;6.922;2023-07-28T07:15:51;5.78;;;3.03;;
53253;SDS011;39148;53.332;6.922;2023-07-28T07:18:17;6.07;;;3.00;;
53253;SDS011;39148;53.332;6.922;2023-07-28T07:20:43;5.80;;;3.22;;
53253;SDS011;39148;53.332;6.922;2023-07-28T07:23:09;5.70;;;3.65;;
53253;SDS011;39148;53.332;6.922;2023-07-28T07:25:35;6.20;;;3.50;;
53253;SDS011;39148;53.332;6.922;2023-07-28T07:28:01;6.20;;;3.45;;
53253;SDS011;39148;53.332;6.922;2023-07-28T07:30:27;5.57;;;3.60;;
53253;SDS011;39148;53.332;6.922;2023-07-28T07:32:52;5.57;;;3.75;;
53253;SDS011;39148;53.332;6.922;2023-07-28T07:35:18;5.93;;;3.90;;
53253;SDS011;39148;53.332;6.922;2023-07-28T07:37:44;5.40;;;3.55;;
53253;SDS011;39148;53.332;6.922;2023-07-28T07:40:10;5.85;;;3.78;;
53253;SDS011;39148;53.332;6.922;2023-07-28T07:42:40;5.93;;;4.10;;
53253;SDS011;39148;53.332;6.922;2023-07-28T07:45:16;7.33;;;3.97;;
53253;SDS011;39148;53.332;6.922;2023-07-28T07:47:42;6.70;;;4.25;;
53253;SDS011;39148;53.332;6.922;2023-07-28T07:50:08;6.30;;;3.20;;
53253;SDS011;39148;53.332;6.922;2023-07-28T07:52:35;4.30;;;2.47;;
53253;SDS011;39148;53.332;6.922;2023-07-28T07:55:02;4.53;;;1.80;;
53253;SDS011;39148;53.332;6.922;2023-07-28T07:57:28;4.05;;;1.65;;
53253;SDS011;39148;53.332;6.922;2023-07-28T07:59:54;4.57;;;2.03;;
53253;SDS011;39148;53.332;6.922;2023-07-28T08:02:21;4.70;;;1.90;;
53253;SDS011;39148;53.332;6.922;2023-07-28T08:04:47;3.90;;;1.88;;
53253;SDS011;39148;53.332;6.922;2023-07-28T08:07:13;3.75;;;1.90;;
53253;SDS011;39148;53.332;6.922;2023-07-28T08:09:41;4.20;;;1.98;;
53253;SDS011;39148;53.332;6.922;2023-07-28T08:12:07;3.22;;;1.70;;
53253;SDS011;39148;53.332;6.922;2023-07-28T08:14:33;4.00;;;1.60;;
53253;SDS011;39148;53.332;6.922;2023-07-28T08:16:59;3.40;;;1.63;;
53253;SDS011;39148;53.332;6.922;2023-07-28T08:19:25;2.72;;;1.30;;
53253;SDS011;39148;53.332;6.922;2023-07-28T08:21:50;3.70;;;1.90;;
53253;SDS011;39148;53.332;6.922;2023-07-28T08:24:16;3.60;;;1.70;;
53253;SDS011;39148;53.332;6.922;2023-07-28T08:26:42;3.22;;;1.80;;
53253;SDS011;39148;53.332;6.922;2023-07-28T08:29:08;4.18;;;1.63;;
53253;SDS011;39148;53.332;6.922;2023-07-28T08:31:34;3.40;;;1.40;;
53253;SDS011;39148;53.332;6.922;2023-07-28T08:34:02;3.92;;;1.48;;
53253;SDS011;39148;53.332;6.922;2023-07-28T08:36:28;3.45;;;1.67;;
53253;SDS011;39148;53.332;6.922;2023-07-28T08:38:54;3.17;;;1.48;;
53253;SDS011;39148;53.332;6.922;2023-07-28T08:41:20;2.92;;;1.30;;
53253;SDS011;39148;53.332;6.922;2023-07-28T08:43:45;3.88;;;1.77;;
53253;SDS011;39148;53.332;6.922;2023-07-28T08:46:11;3.03;;;1.50;;
53253;SDS011;39148;53.332;6.922;2023-07-28T08:48:38;2.80;;;1.45;;
53253;SDS011;39148;53.332;6.922;2023-07-28T08:51:04;3.40;;;1.80;;
53253;SDS011;39148;53.332;6.922;2023-07-28T08:53:30;4.97;;;1.80;;
53253;SDS011;39148;53.332;6.922;2023-07-28T08:55:56;2.47;;;1.40;;
53253;SDS011;39148;53.332;6.922;2023-07-28T08:58:22;3.53;;;1.60;;
53253;SDS011;39148;53.332;6.922;2023-07-28T09:00:49;2.72;;;1.70;;
53253;SDS011;39148;53.332;6.922;2023-07-28T09:03:17;3.33;;;1.60;;
53253;SDS011;39148;53.332;6.922;2023-07-28T09:05:44;3.35;;;1.63;;
53253;SDS011;39148;53.332;6.922;2023-07-28T09:08:14;3.47;;;1.63;;
53253;SDS011;39148;53.332;6.922;2023-07-28T09:10:49;4.10;;;1.67;;
53253;SDS011;39148;53.332;6.922;2023-07-28T09:13:15;2.42;;;1.38;;
53253;SDS011;39148;53.332;6.922;2023-07-28T09:15:42;2.97;;;1.40;;
53253;SDS011;39148;53.332;6.922;2023-07-28T09:18:12;2.80;;;1.40;;
53253;SDS011;39148;53.332;6.922;2023-07-28T09:20:40;3.75;;;1.35;;
53253;SDS011;39148;53.332;6.922;2023-07-28T09:23:07;3.17;;;1.77;;
53253;SDS011;39148;53.332;6.922;2023-07-28T09:25:34;2.85;;;1.58;;
53253;SDS011;39148;53.332;6.922;2023-07-28T09:28:01;2.28;;;1.30;;
53253;SDS011;39148;53.332;6.922;2023-07-28T09:30:27;2.33;;;1.23;;
53253;SDS011;39148;53.332;6.922;2023-07-28T09:33:12;2.47;;;1.40;;
53253;SDS011;39148;53.332;6.922;2023-07-28T09:35:48;2.65;;;1.38;;
53253;SDS011;39148;53.332;6.922;2023-07-28T09:38:14;3.33;;;1.60;;
53253;SDS011;39148;53.332;6.922;2023-07-28T09:40:41;2.75;;;1.30;;
53253;SDS011;39148;53.332;6.922;2023-07-28T09:43:07;2.85;;;1.27;;
53253;SDS011;39148;53.332;6.922;2023-07-28T09:45:32;2.83;;;1.40;;
53253;SDS011;39148;53.332;6.922;2023-07-28T09:48:01;3.10;;;1.40;;
53253;SDS011;39148;53.332;6.922;2023-07-28T09:50:32;3.15;;;1.42;;
53253;SDS011;39148;53.332;6.922;2023-07-28T09:53:02;2.67;;;1.45;;
53253;SDS011;39148;53.332;6.922;2023-07-28T09:55:28;3.67;;;1.45;;
53253;SDS011;39148;53.332;6.922;2023-07-28T09:57:55;3.25;;;1.48;;
53253;SDS011;39148;53.332;6.922;2023-07-28T10:00:23;2.95;;;1.40;;
53253;SDS011;39148;53.332;6.922;2023-07-28T10:02:49;2.38;;;1.50;;
53253;SDS011;39148;53.332;6.922;2023-07-28T10:05:15;2.10;;;1.25;;
53253;SDS011;39148;53.332;6.922;2023-07-28T10:07:42;2.00;;;1.17;;
53253;SDS011;39148;53.332;6.922;2023-07-28T10:10:10;2.78;;;1.35;;
53253;SDS011;39148;53.332;6.922;2023-07-28T10:12:48;2.63;;;1.13;;
53253;SDS011;39148;53.332;6.922;2023-07-28T10:15:19;2.85;;;1.35;;
53253;SDS011;39148;53.332;6.922;2023-07-28T10:17:47;3.03;;;1.35;;
53253;SDS011;39148;53.332;6.922;2023-07-28T10:20:31;2.78;;;1.40;;
53253;SDS011;39148;53.332;6.922;2023-07-28T10:23:06;2.65;;;1.30;;
53253;SDS011;39148;53.332;6.922;2023-07-28T10:25:56;2.72;;;1.42;;
53253;SDS011;39148;53.332;6.922;2023-07-28T10:31:00;2.27;;;1.10;;
53253;SDS011;39148;53.332;6.922;2023-07-28T10:35:52;2.92;;;1.20;;
53253;SDS011;39148;53.332;6.922;2023-07-28T10:38:32;2.33;;;1.38;;
53253;SDS011;39148;53.332;6.922;2023-07-28T10:43:41;2.42;;;1.20;;
53253;SDS011;39148;53.332;6.922;2023-07-28T10:46:08;3.03;;;1.40;;
53253;SDS011;39148;53.332;6.922;2023-07-28T10:48:45;2.55;;;1.38;;
53253;SDS011;39148;53.332;6.922;2023-07-28T10:51:22;2.30;;;1.40;;
53253;SDS011;39148;53.332;6.922;2023-07-28T10:53:55;2.85;;;1.60;;
53253;SDS011;39148;53.332;6.922;2023-07-28T10:56:21;2.90;;;1.23;;
53253;SDS011;39148;53.332;6.922;2023-07-28T10:58:47;2.28;;;1.35;;
53253;SDS011;39148;53.332;6.922;2023-07-28T11:01:31;3.30;;;1.55;;
53253;SDS011;39148;53.332;6.922;2023-07-28T11:06:35;2.30;;;1.50;;
53253;SDS011;39148;53.332;6.922;2023-07-28T11:09:02;3.33;;;1.70;;
53253;SDS011;39148;53.332;6.922;2023-07-28T11:11:31;2.70;;;1.30;;
53253;SDS011;39148;53.332;6.922;2023-07-28T11:13:57;3.35;;;1.60;;
53253;SDS011;39148;53.332;6.922;2023-07-28T11:16:23;2.58;;;1.25;;
53253;SDS011;39148;53.332;6.922;2023-07-28T11:18:49;2.38;;;1.25;;
53253;SDS011;39148;53.332;6.922;2023-07-28T11:21:17;2.58;;;1.50;;
53253;SDS011;39148;53.332;6.922;2023-07-28T11:23:46;2.20;;;1.40;;
53253;SDS011;39148;53.332;6.922;2023-07-28T11:26:11;2.00;;;1.20;;
53253;SDS011;39148;53.332;6.922;2023-07-28T11:28:38;2.63;;;1.33;;
53253;SDS011;39148;53.332;6.922;2023-07-28T11:31:04;2.80;;;1.40;;
53253;SDS011;39148;53.332;6.922;2023-07-28T11:33:31;2.83;;;1.38;;
53253;SDS011;39148;53.332;6.922;2023-07-28T11:35:56;2.00;;;1.27;;
53253;SDS011;39148;53.332;6.922;2023-07-28T11:38:22;2.20;;;1.30;;
53253;SDS011;39148;53.332;6.922;2023-07-28T11:40:49;2.30;;;1.13;;
53253;SDS011;39148;53.332;6.922;2023-07-28T11:43:16;2.88;;;1.35;;
53253;SDS011;39148;53.332;6.922;2023-07-28T11:45:43;2.30;;;1.33;;
53253;SDS011;39148;53.332;6.922;2023-07-28T11:48:09;2.15;;;1.30;;
53253;SDS011;39148;53.332;6.922;2023-07-28T11:50:38;2.28;;;1.17;;
53253;SDS011;39148;53.332;6.922;2023-07-28T11:53:05;2.30;;;1.30;;
53253;SDS011;39148;53.332;6.922;2023-07-28T11:55:31;1.65;;;0.98;;
53253;SDS011;39148;53.332;6.922;2023-07-28T11:57:58;1.85;;;1.08;;
53253;SDS011;39148;53.332;6.922;2023-07-28T12:00:30;2.38;;;1.30;;
53253;SDS011;39148;53.332;6.922;2023-07-28T12:03:12;1.95;;;1.17;;
53253;SDS011;39148;53.332;6.922;2023-07-28T12:05:38;2.75;;;1.23;;
53253;SDS011;39148;53.332;6.922;2023-07-28T12:08:05;2.20;;;1.30;;
53253;SDS011;39148;53.332;6.922;2023-07-28T12:10:32;2.03;;;1.25;;
53253;SDS011;39148;53.332;6.922;2023-07-28T12:13:05;2.05;;;1.20;;
53253;SDS011;39148;53.332;6.922;2023-07-28T12:15:32;2.13;;;1.15;;
53253;SDS011;39148;53.332;6.922;2023-07-28T12:18:03;2.50;;;1.20;;
53253;SDS011;39148;53.332;6.922;2023-07-28T12:20:48;2.28;;;1.23;;
53253;SDS011;39148;53.332;6.922;2023-07-28T12:23:18;2.15;;;1.10;;
53253;SDS011;39148;53.332;6.922;2023-07-28T12:25:45;2.20;;;1.10;;
53253;SDS011;39148;53.332;6.922;2023-07-28T12:28:12;2.20;;;1.27;;
53253;SDS011;39148;53.332;6.922;2023-07-28T12:30:38;2.63;;;1.20;;
53253;SDS011;39148;53.332;6.922;2023-07-28T12:33:04;1.90;;;1.17;;
53253;SDS011;39148;53.332;6.922;2023-07-28T12:35:31;2.28;;;1.10;;
53253;SDS011;39148;53.332;6.922;2023-07-28T12:37:59;1.98;;;1.13;;
53253;SDS011;39148;53.332;6.922;2023-07-28T12:40:27;2.38;;;1.30;;
53253;SDS011;39148;53.332;6.922;2023-07-28T12:42:56;1.88;;;1.20;;
53253;SDS011;39148;53.332;6.922;2023-07-28T12:45:22;2.35;;;1.23;;
53253;SDS011;39148;53.332;6.922;2023-07-28T12:47:50;2.10;;;1.20;;
53253;SDS011;39148;53.332;6.922;2023-07-28T12:50:22;2.25;;;1.20;;
53253;SDS011;39148;53.332;6.922;2023-07-28T12:52:49;1.65;;;1.00;;
53253;SDS011;39148;53.332;6.922;2023-07-28T12:55:15;2.15;;;1.08;;
53253;SDS011;39148;53.332;6.922;2023-07-28T12:57:41;1.83;;;1.00;;
53253;SDS011;39148;53.332;6.922;2023-07-28T13:00:07;2.25;;;1.20;;
53253;SDS011;39148;53.332;6.922;2023-07-28T13:02:40;2.45;;;1.13;;
53253;SDS011;39148;53.332;6.922;2023-07-28T13:05:09;3.42;;;1.30;;
53253;SDS011;39148;53.332;6.922;2023-07-28T13:07:36;2.38;;;1.13;;
53253;SDS011;39148;53.332;6.922;2023-07-28T13:10:03;1.52;;;0.90;;
53253;SDS011;39148;53.332;6.922;2023-07-28T13:12:30;2.47;;;1.20;;
53253;SDS011;39148;53.332;6.922;2023-07-28T13:14:56;1.85;;;1.00;;
53253;SDS011;39148;53.332;6.922;2023-07-28T13:17:22;2.45;;;1.20;;
53253;SDS011;39148;53.332;6.922;2023-07-28T13:19:47;1.77;;;1.08;;
53253;SDS011;39148;53.332;6.922;2023-07-28T13:22:13;2.13;;;1.10;;
53253;SDS011;39148;53.332;6.922;2023-07-28T13:24:39;2.38;;;1.17;;
53253;SDS011;39148;53.332;6.922;2023-07-28T13:27:06;2.00;;;0.98;;
53253;SDS011;39148;53.332;6.922;2023-07-28T13:29:32;2.42;;;1.10;;
53253;SDS011;39148;53.332;6.922;2023-07-28T13:31:58;2.92;;;1.20;;
53253;SDS011;39148;53.332;6.922;2023-07-28T13:34:27;2.70;;;1.17;;
53253;SDS011;39148;53.332;6.922;2023-07-28T13:36:53;2.45;;;1.00;;
53253;SDS011;39148;53.332;6.922;2023-07-28T13:39:20;1.95;;;0.90;;
53253;SDS011;39148;53.332;6.922;2023-07-28T13:41:46;1.50;;;1.00;;
53253;SDS011;39148;53.332;6.922;2023-07-28T13:44:12;2.10;;;1.02;;
53253;SDS011;39148;53.332;6.922;2023-07-28T13:46:37;1.90;;;1.10;;
53253;SDS011;39148;53.332;6.922;2023-07-28T13:49:03;2.20;;;1.10;;
53253;SDS011;39148;53.332;6.922;2023-07-28T13:51:29;2.63;;;1.05;;
53253;SDS011;39148;53.332;6.922;2023-07-28T13:53:54;1.77;;;1.10;;
53253;SDS011;39148;53.332;6.922;2023-07-28T13:56:20;1.75;;;1.00;;
53253;SDS011;39148;53.332;6.922;2023-07-28T13:58:46;2.67;;;1.38;;
53253;SDS011;39148;53.332;6.922;2023-07-28T14:01:11;3.00;;;0.90;;
53253;SDS011;39148;53.332;6.922;2023-07-28T14:03:37;2.75;;;1.20;;
53253;SDS011;39148;53.332;6.922;2023-07-28T14:06:03;1.70;;;1.08;;
53253;SDS011;39148;53.332;6.922;2023-07-28T14:08:28;2.83;;;1.20;;
53253;SDS011;39148;53.332;6.922;2023-07-28T14:10:54;2.60;;;1.00;;
53253;SDS011;39148;53.332;6.922;2023-07-28T14:13:20;3.22;;;1.17;;
53253;SDS011;39148;53.332;6.922;2023-07-28T14:15:47;2.83;;;1.38;;
53253;SDS011;39148;53.332;6.922;2023-07-28T14:18:13;2.72;;;1.20;;
53253;SDS011;39148;53.332;6.922;2023-07-28T14:20:38;2.47;;;1.20;;
53253;SDS011;39148;53.332;6.922;2023-07-28T14:23:19;3.45;;;1.40;;
53253;SDS011;39148;53.332;6.922;2023-07-28T14:25:50;2.35;;;1.40;;
53253;SDS011;39148;53.332;6.922;2023-07-28T14:28:25;2.47;;;1.35;;
53253;SDS011;39148;53.332;6.922;2023-07-28T14:30:51;3.50;;;1.50;;
53253;SDS011;39148;53.332;6.922;2023-07-28T14:33:19;2.97;;;1.60;;
53253;SDS011;39148;53.332;6.922;2023-07-28T14:35:48;1.80;;;1.08;;
53253;SDS011;39148;53.332;6.922;2023-07-28T14:38:20;2.72;;;1.30;;
53253;SDS011;39148;53.332;6.922;2023-07-28T14:40:48;1.85;;;1.20;;
53253;SDS011;39148;53.332;6.922;2023-07-28T14:43:19;1.70;;;1.20;;
53253;SDS011;39148;53.332;6.922;2023-07-28T14:45:45;2.83;;;1.50;;
53253;SDS011;39148;53.332;6.922;2023-07-28T14:48:11;2.95;;;1.33;;
53253;SDS011;39148;53.332;6.922;2023-07-28T14:50:37;2.35;;;1.20;;
53253;SDS011;39148;53.332;6.922;2023-07-28T14:53:14;3.55;;;1.48;;
53253;SDS011;39148;53.332;6.922;2023-07-28T14:56:02;2.75;;;1.17;;
53253;SDS011;39148;53.332;6.922;2023-07-28T14:58:34;3.60;;;1.45;;
53253;SDS011;39148;53.332;6.922;2023-07-28T15:01:00;1.75;;;1.20;;
53253;SDS011;39148;53.332;6.922;2023-07-28T15:03:26;2.05;;;1.10;;